Time;durP1;ratioP1;P1;durP2;ratioP2;P2;SDS_P1;SDS_P2;PMS_P1;PMS_P2;Temp;Humidity;BMP_temperature;BMP_pressure;BME280_temperature;BME280_humidity;BME280_pressure;Samples;Min_cycle;Max_cycle;Signal;HPM_P1;HPM_P2
2023/01/13 00:01:53;;;;;;;4.65;2.90;;;7.10;99.90;;;;;;5290467;28;20016;-81
2023/01/13 00:04:24;;;;;;;6.43;3.40;;;7.00;99.90;;;;;;5290733;28;20102;-81
2023/01/13 00:06:54;;;;;;;5.90;4.80;;;7.10;99.90;;;;;;5290221;28;20395;-67
2023/01/13 00:09:25;;;;;;;5.05;4.63;;;7.10;99.90;;;;;;5290119;28;20479;-76
2023/01/13 00:11:56;;;;;;;8.15;4.68;;;7.40;99.90;;;;;;5290191;28;20043;-81
2023/01/13 00:14:29;;;;;;;4.28;3.72;;;7.20;99.90;;;;;;5290052;28;20027;-79
2023/01/13 00:16:59;;;;;;;4.50;3.33;;;7.20;99.90;;;;;;5289905;28;20023;-72
2023/01/13 00:19:30;;;;;;;4.15;3.05;;;7.30;99.90;;;;;;5289970;28;20020;-73
2023/01/13 00:22:01;;;;;;;3.83;3.00;;;7.50;99.90;;;;;;5289849;28;20085;-71
2023/01/13 00:24:32;;;;;;;2.95;2.47;;;7.60;99.90;;;;;;5289967;28;20363;-81
2023/01/13 00:27:03;;;;;;;2.75;2.22;;;7.40;99.90;;;;;;5289669;28;20046;-69
2023/01/13 00:29:33;;;;;;;4.57;3.10;;;7.20;99.90;;;;;;5289678;28;20517;-79
2023/01/13 00:32:04;;;;;;;5.55;5.10;;;7.00;99.90;;;;;;5288554;28;20051;-72
2023/01/13 00:34:35;;;;;;;6.68;6.10;;;7.40;99.90;;;;;;5289826;28;20077;-68
2023/01/13 00:37:07;;;;;;;4.80;4.40;;;7.20;99.90;;;;;;5290054;28;20429;-68
2023/01/13 00:39:38;;;;;;;4.00;3.70;;;7.20;99.90;;;;;;5289838;27;20047;-81
2023/01/13 00:44:57;;;;;;;3.33;3.00;;;7.20;99.90;;;;;;5289911;28;20033;-82
2023/01/13 00:47:28;;;;;;;4.18;2.63;;;7.30;99.90;;;;;;5288179;28;20024;-82
2023/01/13 00:49:59;;;;;;;2.85;2.58;;;7.20;99.90;;;;;;5288508;28;20526;-74
2023/01/13 00:52:32;;;;;;;3.13;2.65;;;7.10;99.90;;;;;;5288748;28;20121;-75
2023/01/13 00:55:03;;;;;;;8.60;2.38;;;7.00;99.90;;;;;;5292338;27;20038;-77
2023/01/13 00:57:34;;;;;;;4.25;3.65;;;7.40;99.90;;;;;;5310253;27;20047;-76
2023/01/13 01:00:05;;;;;;;3.47;2.50;;;7.00;99.90;;;;;;5310470;27;20038;-75
2023/01/13 01:02:36;;;;;;;2.97;2.67;;;7.00;99.90;;;;;;5310506;27;20045;-77
2023/01/13 01:05:07;;;;;;;4.90;3.85;;;7.10;99.90;;;;;;5310597;27;20063;-80
2023/01/13 01:07:37;;;;;;;5.10;2.25;;;7.10;99.90;;;;;;5310629;27;20498;-80
2023/01/13 01:10:09;;;;;;;7.05;2.40;;;7.40;99.90;;;;;;5310582;27;20148;-69
2023/01/13 01:12:40;;;;;;;3.97;3.03;;;7.00;99.90;;;;;;5311037;27;20540;-70
2023/01/13 01:15:10;;;;;;;2.88;2.67;;;7.10;99.90;;;;;;5310746;27;20023;-70
2023/01/13 01:17:41;;;;;;;3.50;3.20;;;7.00;99.90;;;;;;5310467;27;20027;-78
2023/01/13 01:20:12;;;;;;;4.85;4.25;;;7.20;99.90;;;;;;5310235;27;20049;-72
2023/01/13 01:22:43;;;;;;;4.68;4.00;;;7.40;99.90;;;;;;5310187;27;20110;-81
2023/01/13 01:25:14;;;;;;;3.85;3.55;;;6.80;99.90;;;;;;5310157;27;20019;-80
2023/01/13 01:27:45;;;;;;;2.22;2.00;;;7.20;99.90;;;;;;5309905;27;20045;-80
2023/01/13 01:30:15;;;;;;;3.20;2.88;;;7.20;99.90;;;;;;5310097;27;20489;-74
2023/01/13 01:32:46;;;;;;;4.80;4.45;;;7.30;99.90;;;;;;5310053;27;20381;-81
2023/01/13 01:35:17;;;;;;;7.45;6.85;;;7.30;99.90;;;;;;5309817;27;20019;-79
2023/01/13 01:37:54;;;;;;;4.18;3.80;;;6.70;99.90;;;;;;5309824;27;20076;-81
2023/01/13 01:40:29;;;;;;;6.45;4.57;;;7.00;99.90;;;;;;5309876;27;20562;-81
2023/01/13 01:46:40;;;;;;;4.97;2.90;;;7.00;99.90;;;;;;5309796;27;20053;-82
2023/01/13 01:49:10;;;;;;;3.80;2.47;;;7.20;99.90;;;;;;5309619;27;20122;-81
2023/01/13 01:51:50;;;;;;;6.93;6.38;;;7.50;99.90;;;;;;5309679;27;20644;-72
2023/01/13 01:54:34;;;;;;;4.97;4.57;;;7.00;99.90;;;;;;5309631;27;20027;-82
2023/01/13 01:57:09;;;;;;;3.80;2.85;;;6.70;99.90;;;;;;5309364;27;20031;-77
2023/01/13 01:59:40;;;;;;;4.43;4.10;;;7.00;99.90;;;;;;5309620;27;20439;-72
2023/01/13 02:02:11;;;;;;;3.67;3.47;;;6.70;99.90;;;;;;5309606;27;20622;-79
2023/01/13 02:04:49;;;;;;;4.78;4.18;;;6.90;99.90;;;;;;5312763;27;20039;-78
2023/01/13 02:07:23;;;;;;;3.90;3.60;;;7.00;99.90;;;;;;5312605;27;20084;-80
2023/01/13 02:09:56;;;;;;;4.75;3.72;;;6.90;99.90;;;;;;5313904;27;20035;-81
2023/01/13 02:12:31;;;;;;;2.72;2.63;;;7.10;99.90;;;;;;5313855;27;20019;-81
2023/01/13 02:15:09;;;;;;;3.20;2.90;;;6.80;99.90;;;;;;5313693;27;20041;-78
2023/01/13 02:17:57;;;;;;;2.65;2.45;;;6.90;99.90;;;;;;5313750;27;20472;-77
2023/01/13 02:20:47;;;;;;;3.80;3.25;;;7.00;99.90;;;;;;5312559;27;20046;-71
2023/01/13 02:26:53;;;;;;;5.18;2.95;;;6.80;99.90;;;;;;5313792;27;20050;-69
2023/01/13 02:33:05;;;;;;;2.22;2.03;;;7.10;99.90;;;;;;5277739;28;20367;-67
2023/01/13 02:35:48;;;;;;;1.80;1.70;;;6.70;99.90;;;;;;5269010;28;20028;-66
2023/01/13 02:38:27;;;;;;;3.95;1.95;;;7.00;99.90;;;;;;5270176;28;20028;-73
2023/01/13 02:44:19;;;;;;;2.70;1.63;;;7.20;99.90;;;;;;5270914;28;20024;-68
2023/01/13 02:47:06;;;;;;;3.70;3.40;;;6.70;99.90;;;;;;5271110;28;20479;-73
2023/01/13 02:49:45;;;;;;;4.03;2.40;;;7.00;99.90;;;;;;5284756;28;20039;-79
2023/01/13 02:52:24;;;;;;;3.30;2.35;;;6.80;99.90;;;;;;5291877;28;20027;-66
2023/01/13 02:55:01;;;;;;;4.27;2.30;;;6.80;99.90;;;;;;5291817;28;20035;-68
2023/01/13 02:57:34;;;;;;;7.68;3.60;;;6.80;99.90;;;;;;5291810;28;20046;-80
2023/01/13 03:00:08;;;;;;;4.50;2.00;;;6.80;99.90;;;;;;5291669;28;20024;-78
2023/01/13 03:02:39;;;;;;;4.63;4.13;;;6.60;99.90;;;;;;5291508;28;20099;-72
2023/01/13 03:05:14;;;;;;;3.85;3.50;;;6.70;99.90;;;;;;5291537;28;20399;-67
2023/01/13 03:08:06;;;;;;;4.03;3.00;;;6.90;99.90;;;;;;5291426;28;20031;-77
2023/01/13 03:10:55;;;;;;;4.07;3.67;;;6.90;99.90;;;;;;5291455;28;20019;-79
2023/01/13 03:13:49;;;;;;;4.28;3.88;;;6.60;99.90;;;;;;5291413;28;20031;-79
2023/01/13 03:16:32;;;;;;;3.55;3.25;;;6.80;99.90;;;;;;5290423;28;20074;-80
2023/01/13 03:19:44;;;;;;;4.65;4.22;;;7.10;99.90;;;;;;5291360;28;20024;-74
2023/01/13 03:22:25;;;;;;;2.50;1.70;;;7.00;99.90;;;;;;5291225;28;20019;-71
2023/01/13 03:25:17;;;;;;;4.88;2.67;;;7.00;99.90;;;;;;5291173;28;20027;-79
2023/01/13 03:27:54;;;;;;;4.03;3.72;;;7.20;99.90;;;;;;5289631;28;20578;-77
2023/01/13 03:30:35;;;;;;;5.03;4.40;;;6.80;99.90;;;;;;5290997;28;20052;-67
2023/01/13 03:33:18;;;;;;;2.95;2.75;;;6.80;99.90;;;;;;5291250;28;20027;-77
2023/01/13 03:35:53;;;;;;;2.50;2.00;;;6.80;99.90;;;;;;5291139;28;20031;-69
2023/01/13 03:38:41;;;;;;;3.63;3.05;;;7.00;99.90;;;;;;5290997;28;20027;-79
2023/01/13 03:41:27;;;;;;;2.30;2.10;;;6.60;99.90;;;;;;5291056;28;20402;-78
2023/01/13 03:44:22;;;;;;;3.65;2.17;;;6.80;99.90;;;;;;5290960;28;20024;-80
2023/01/13 03:47:10;;;;;;;3.00;2.65;;;6.60;99.90;;;;;;5290680;28;20494;-81
2023/01/13 03:49:49;;;;;;;7.97;2.60;;;6.60;99.90;;;;;;5290605;28;20039;-79
2023/01/13 03:52:27;;;;;;;2.40;1.80;;;6.90;99.90;;;;;;5290886;28;20065;-81
2023/01/13 03:55:06;;;;;;;4.18;2.50;;;6.70;99.90;;;;;;5291136;28;20486;-81
2023/01/13 03:57:53;;;;;;;5.03;3.13;;;6.70;99.90;;;;;;5290352;28;20044;-80
2023/01/13 04:00:32;;;;;;;2.28;2.17;;;6.70;99.90;;;;;;5290707;28;20020;-80
2023/01/13 04:03:10;;;;;;;5.30;2.50;;;7.00;99.90;;;;;;5290502;28;20031;-79
2023/01/13 04:05:45;;;;;;;1.92;1.83;;;7.20;99.90;;;;;;5290782;28;20268;-79
2023/01/13 04:08:26;;;;;;;4.50;2.42;;;7.20;99.90;;;;;;5288966;28;20411;-78
2023/01/13 04:11:03;;;;;;;2.20;2.00;;;7.20;99.90;;;;;;5290296;28;20047;-66
2023/01/13 04:13:38;;;;;;;2.38;2.17;;;7.10;99.90;;;;;;5290279;28;20028;-79
2023/01/13 04:16:10;;;;;;;4.25;2.20;;;7.10;99.90;;;;;;5290210;28;20423;-68
2023/01/13 04:18:41;;;;;;;3.60;3.30;;;7.00;99.90;;;;;;5290201;28;20059;-74
2023/01/13 04:21:12;;;;;;;5.65;3.33;;;6.90;99.90;;;;;;5290133;28;20424;-74
2023/01/13 04:23:42;;;;;;;2.22;2.13;;;7.00;99.90;;;;;;5290017;28;20067;-78
2023/01/13 04:26:13;;;;;;;4.35;2.13;;;6.90;99.90;;;;;;5288369;28;20047;-74
2023/01/13 04:28:45;;;;;;;7.28;3.00;;;6.80;99.90;;;;;;5288803;28;20081;-78
2023/01/13 04:31:16;;;;;;;4.85;2.63;;;6.90;99.90;;;;;;5289890;28;20399;-76
2023/01/13 04:33:47;;;;;;;7.45;2.90;;;7.00;99.90;;;;;;5289831;28;20028;-78
2023/01/13 04:36:18;;;;;;;3.58;2.95;;;7.20;99.90;;;;;;5289783;28;20069;-73
2023/01/13 04:38:49;;;;;;;2.38;2.17;;;7.00;99.90;;;;;;5289648;28;20107;-70
2023/01/13 04:41:20;;;;;;;2.88;2.58;;;6.90;99.90;;;;;;5289584;27;20039;-66
2023/01/13 04:43:51;;;;;;;2.30;1.95;;;6.90;99.90;;;;;;5289564;27;20039;-71
2023/01/13 04:46:22;;;;;;;4.35;3.03;;;7.00;99.90;;;;;;5289383;28;20015;-78
2023/01/13 04:48:53;;;;;;;3.83;3.50;;;7.00;99.90;;;;;;5289427;28;20027;-77
2023/01/13 04:51:24;;;;;;;4.90;4.50;;;7.00;99.90;;;;;;5289526;28;20023;-78
2023/01/13 04:53:54;;;;;;;3.92;3.55;;;7.00;99.90;;;;;;5289418;28;20074;-68
2023/01/13 04:56:25;;;;;;;4.00;3.60;;;7.00;99.90;;;;;;5279030;28;20103;-76
2023/01/13 04:58:56;;;;;;;4.88;2.90;;;6.70;99.90;;;;;;5266890;28;20055;-79
2023/01/13 05:01:27;;;;;;;4.15;3.75;;;7.00;99.90;;;;;;5268378;28;20060;-78
2023/01/13 05:03:58;;;;;;;3.50;2.20;;;7.00;99.90;;;;;;5268219;28;20047;-78
2023/01/13 05:06:29;;;;;;;5.22;3.55;;;6.80;99.90;;;;;;5267948;28;20026;-70
2023/01/13 05:09:00;;;;;;;2.33;1.98;;;6.90;99.90;;;;;;5267935;28;20051;-73
2023/01/13 05:17:15;;;;;;;5.65;5.15;;;6.80;99.90;;;;;;5267766;28;20070;-70
2023/01/13 05:19:46;;;;;;;6.20;4.72;;;7.10;99.90;;;;;;5267975;28;20039;-68
2023/01/13 05:25:21;;;;;;;8.13;2.50;;;7.00;99.90;;;;;;5267703;28;20036;-68
2023/01/13 05:27:54;;;;;;;5.70;2.40;;;7.10;99.90;;;;;;5267824;28;20051;-70
2023/01/13 05:30:30;;;;;;;5.80;3.13;;;7.00;99.90;;;;;;5267939;28;20472;-75
2023/01/13 05:33:12;;;;;;;5.40;4.88;;;7.30;99.90;;;;;;5268336;28;20051;-66
2023/01/13 05:35:45;;;;;;;6.25;2.80;;;7.10;99.90;;;;;;5272591;27;20035;-69
2023/01/13 05:38:17;;;;;;;1.67;1.40;;;7.00;99.90;;;;;;5292550;27;20027;-66
2023/01/13 05:43:37;;;;;;;4.65;4.32;;;6.80;99.90;;;;;;5299849;27;20830;-77
2023/01/13 05:46:08;;;;;;;2.45;1.98;;;6.60;99.90;;;;;;5291845;27;20019;-75
2023/01/13 05:48:41;;;;;;;5.25;3.22;;;7.00;99.90;;;;;;5295427;27;20402;-69
2023/01/13 05:51:12;;;;;;;3.85;3.65;;;6.70;99.90;;;;;;5287936;28;20022;-68
2023/01/13 05:53:43;;;;;;;4.28;3.83;;;6.80;99.90;;;;;;5292280;28;20020;-68
2023/01/13 05:56:16;;;;;;;4.07;3.78;;;7.00;99.90;;;;;;5287678;28;20024;-75
2023/01/13 05:58:46;;;;;;;3.70;3.40;;;6.90;99.90;;;;;;5292790;28;20039;-66
2023/01/13 06:01:19;;;;;;;3.88;2.53;;;7.10;99.90;;;;;;5295905;27;20048;-67
2023/01/13 06:03:49;;;;;;;1.80;1.48;;;7.00;99.90;;;;;;5287911;28;20057;-69
2023/01/13 06:06:20;;;;;;;3.92;1.90;;;6.90;99.90;;;;;;5288891;28;20060;-67
2023/01/13 06:08:51;;;;;;;5.82;1.95;;;6.70;99.90;;;;;;5303668;27;20032;-77
2023/01/13 06:11:22;;;;;;;2.50;2.30;;;6.60;99.90;;;;;;5294574;28;20378;-78
2023/01/13 06:13:53;;;;;;;5.18;4.88;;;6.80;99.90;;;;;;5302055;28;20030;-77
2023/01/13 06:16:24;;;;;;;4.78;3.35;;;7.10;99.90;;;;;;5288710;28;20097;-79
2023/01/13 06:18:54;;;;;;;3.60;3.28;;;7.10;99.90;;;;;;5293380;28;20119;-75
2023/01/13 06:21:25;;;;;;;4.80;3.88;;;6.80;99.90;;;;;;5297113;27;20036;-77
2023/01/13 06:23:58;;;;;;;3.50;2.55;;;7.10;99.90;;;;;;5287638;28;20405;-67
2023/01/13 06:26:35;;;;;;;7.50;4.28;;;7.20;99.90;;;;;;5306655;28;20027;-69
2023/01/13 06:29:07;;;;;;;4.93;4.53;;;7.20;99.90;;;;;;5301511;27;20027;-77
2023/01/13 06:31:38;;;;;;;4.25;2.40;;;7.20;99.90;;;;;;5299693;28;20066;-66
2023/01/13 06:34:12;;;;;;;6.13;2.17;;;7.20;99.90;;;;;;5297250;27;20027;-78
2023/01/13 06:36:48;;;;;;;6.00;3.33;;;7.20;99.90;;;;;;5282225;28;20022;-78
2023/01/13 06:39:23;;;;;;;4.65;1.92;;;7.10;99.90;;;;;;5298818;27;20094;-77
2023/01/13 06:44:44;;;;;;;3.55;3.25;;;6.80;99.90;;;;;;5274696;28;20018;-78
2023/01/13 06:47:16;;;;;;;4.85;4.25;;;7.00;99.90;;;;;;5286905;28;20031;-74
2023/01/13 06:49:48;;;;;;;4.47;3.90;;;7.20;99.90;;;;;;5286983;28;20546;-69
2023/01/13 06:52:20;;;;;;;4.88;3.60;;;7.30;99.90;;;;;;5289326;28;20694;-74
2023/01/13 06:54:51;;;;;;;7.43;3.10;;;6.70;99.90;;;;;;5289533;28;20139;-77
2023/01/13 06:57:23;;;;;;;9.73;6.80;;;7.20;99.90;;;;;;5298750;27;20114;-73
2023/01/13 06:59:54;;;;;;;52.58;31.73;;;7.00;99.90;;;;;;5305743;27;20378;-73
2023/01/13 07:02:26;;;;;;;9.75;8.25;;;7.00;99.90;;;;;;5308188;27;20035;-67
2023/01/13 07:04:57;;;;;;;4.35;2.63;;;7.30;99.90;;;;;;5291103;27;20016;-71
2023/01/13 07:07:29;;;;;;;41.55;30.48;;;7.40;99.90;;;;;;5301598;27;20033;-67
2023/01/13 07:10:00;;;;;;;8.70;7.80;;;7.40;99.90;;;;;;5297046;27;20036;-71
2023/01/13 07:15:16;;;;;;;17.05;15.18;;;7.20;99.90;;;;;;5290329;28;20479;-71
2023/01/13 07:15:26;;;;;;;3.83;3.30;;;7.10;99.90;;;;;;5301227;27;20424;-78
2023/01/13 07:17:58;;;;;;;5.00;4.60;;;7.40;99.90;;;;;;5292361;27;20348;-69
2023/01/13 07:20:30;;;;;;;4.00;3.60;;;7.30;99.90;;;;;;5297305;27;20076;-74
2023/01/13 07:23:00;;;;;;;2.65;2.45;;;7.30;99.90;;;;;;5299382;27;20440;-66
2023/01/13 07:25:32;;;;;;;4.45;3.17;;;7.60;99.90;;;;;;5290262;28;20110;-74
2023/01/13 07:28:03;;;;;;;8.10;5.28;;;7.20;99.90;;;;;;5302539;27;20576;-75
2023/01/13 07:30:33;;;;;;;1.98;1.83;;;7.30;99.90;;;;;;5293578;27;20023;-70
2023/01/13 07:33:04;;;;;;;3.35;3.15;;;7.40;99.90;;;;;;5291051;27;20441;-73
2023/01/13 07:35:35;;;;;;;3.95;3.30;;;7.10;99.90;;;;;;5290364;28;20106;-74
2023/01/13 07:38:07;;;;;;;3.10;2.78;;;7.30;99.90;;;;;;5293011;27;20024;-78
2023/01/13 07:40:39;;;;;;;3.67;2.75;;;7.60;99.90;;;;;;5299511;27;20024;-77
2023/01/13 07:43:31;;;;;;;4.57;4.18;;;7.30;99.90;;;;;;5293602;27;20016;-69
2023/01/13 07:46:04;;;;;;;2.50;2.38;;;7.40;99.90;;;;;;5304597;27;20106;-71
2023/01/13 07:48:35;;;;;;;4.10;3.88;;;7.70;99.90;;;;;;5289232;27;20035;-71
2023/01/13 07:51:08;;;;;;;10.00;9.13;;;7.70;99.90;;;;;;5286116;27;20027;-73
2023/01/13 07:53:39;;;;;;;3.97;3.58;;;7.70;99.90;;;;;;5287763;27;20030;-76
2023/01/13 07:56:10;;;;;;;4.90;4.40;;;7.80;99.90;;;;;;5292881;27;20379;-68
2023/01/13 07:58:40;;;;;;;3.08;2.88;;;7.30;99.90;;;;;;5307106;27;20130;-71
2023/01/13 08:01:12;;;;;;;3.17;2.80;;;7.70;99.90;;;;;;5302781;27;20043;-71
2023/01/13 08:03:44;;;;;;;4.18;3.88;;;7.70;99.90;;;;;;5289491;28;20031;-69
2023/01/13 08:06:16;;;;;;;4.50;3.95;;;7.80;99.90;;;;;;5290202;28;20016;-68
2023/01/13 08:08:48;;;;;;;6.60;3.75;;;7.40;99.90;;;;;;5294954;27;20047;-75
2023/01/13 08:11:19;;;;;;;7.63;4.75;;;7.70;99.90;;;;;;5289769;28;20106;-69
2023/01/13 08:13:53;;;;;;;7.43;4.57;;;7.30;99.90;;;;;;5298838;27;20553;-69
2023/01/13 08:16:24;;;;;;;3.20;2.20;;;7.40;99.90;;;;;;5297474;27;20386;-70
2023/01/13 08:18:57;;;;;;;2.45;1.92;;;7.50;99.90;;;;;;5295510;27;20034;-71
2023/01/13 08:21:28;;;;;;;3.97;3.60;;;7.60;99.90;;;;;;5303601;27;20029;-71
2023/01/13 08:23:59;;;;;;;3.03;2.83;;;7.60;99.90;;;;;;5310998;27;20655;-70
2023/01/13 08:26:30;;;;;;;3.33;3.03;;;7.70;99.90;;;;;;5293561;27;20034;-71
2023/01/13 08:29:00;;;;;;;2.05;1.60;;;7.60;99.90;;;;;;5308261;27;20466;-72
2023/01/13 08:31:31;;;;;;;2.10;1.70;;;7.80;99.90;;;;;;5299546;27;20020;-71
2023/01/13 08:34:02;;;;;;;2.80;2.60;;;7.70;99.90;;;;;;5301368;27;20033;-72
2023/01/13 08:36:33;;;;;;;3.25;2.92;;;7.70;99.90;;;;;;5282250;27;20102;-71
2023/01/13 08:39:03;;;;;;;3.60;3.30;;;7.90;99.90;;;;;;5288390;28;20474;-71
2023/01/13 08:44:29;;;;;;;2.15;1.95;;;7.50;99.90;;;;;;5288933;28;20461;-68
2023/01/13 08:47:00;;;;;;;2.92;2.80;;;7.80;99.90;;;;;;5293233;27;20023;-69
2023/01/13 08:49:30;;;;;;;4.28;3.97;;;7.70;99.90;;;;;;5297679;27;20058;-71
2023/01/13 08:52:01;;;;;;;2.50;2.30;;;7.70;99.90;;;;;;5288952;27;20027;-73
2023/01/13 08:54:32;;;;;;;4.82;4.43;;;7.30;99.90;;;;;;5289576;27;20035;-69
2023/01/13 08:57:03;;;;;;;2.75;2.58;;;7.70;99.90;;;;;;5295508;27;20026;-71
2023/01/13 08:59:34;;;;;;;4.78;4.45;;;7.80;99.90;;;;;;5297226;27;20044;-71
2023/01/13 09:02:17;;;;;;;4.55;4.15;;;7.90;99.90;;;;;;5303590;27;20035;-71
2023/01/13 09:04:48;;;;;;;2.95;1.70;;;7.80;99.90;;;;;;5275254;27;20031;-70
2023/01/13 09:07:20;;;;;;;1.98;1.50;;;7.50;99.90;;;;;;5290934;27;20031;-71
2023/01/13 09:09:51;;;;;;;5.22;4.78;;;7.70;99.90;;;;;;5302537;27;20445;-72
2023/01/13 09:15:12;;;;;;;6.97;5.38;;;7.80;99.90;;;;;;5288136;28;20089;-72
2023/01/13 09:17:43;;;;;;;4.53;4.10;;;7.30;99.90;;;;;;5294362;27;20429;-72
2023/01/13 09:22:55;;;;;;;2.83;2.50;;;7.80;99.90;;;;;;5291439;27;20495;-69
2023/01/13 09:25:26;;;;;;;3.08;2.85;;;7.50;99.90;;;;;;5298304;27;20035;-71
2023/01/13 09:27:57;;;;;;;3.20;2.95;;;7.70;99.90;;;;;;5288898;28;20044;-72
2023/01/13 09:30:28;;;;;;;7.25;5.32;;;7.50;99.90;;;;;;5294588;28;20107;-72
2023/01/13 09:35:49;;;;;;;6.80;5.27;;;8.00;99.90;;;;;;5224900;27;20034;-71
2023/01/13 09:38:20;;;;;;;3.88;3.67;;;7.70;99.90;;;;;;5264460;28;20032;-70
2023/01/13 09:40:56;;;;;;;5.32;4.93;;;7.90;99.90;;;;;;5279617;28;20535;-69
2023/01/13 09:43:54;;;;;;;3.70;3.50;;;7.80;99.90;;;;;;5272294;28;20498;-72
2023/01/13 09:46:46;;;;;;;3.13;2.80;;;7.90;99.90;;;;;;5263473;28;20072;-70
2023/01/13 09:49:22;;;;;;;2.35;2.15;;;7.80;99.90;;;;;;5263718;28;20375;-71
2023/01/13 09:52:11;;;;;;;2.05;1.77;;;7.20;99.90;;;;;;5266101;28;20029;-68
2023/01/13 09:54:54;;;;;;;6.90;4.68;;;7.50;99.90;;;;;;5263695;28;20051;-70
2023/01/13 09:57:28;;;;;;;4.18;3.88;;;7.40;99.90;;;;;;5262604;28;20413;-71
2023/01/13 09:59:59;;;;;;;2.97;2.65;;;7.30;99.90;;;;;;5263611;28;20041;-72
2023/01/13 10:02:58;;;;;;;3.30;3.10;;;7.40;99.90;;;;;;5262774;28;20051;-72
2023/01/13 10:05:36;;;;;;;3.08;2.88;;;7.60;99.90;;;;;;5262720;28;20028;-71
2023/01/13 10:08:16;;;;;;;3.83;3.53;;;7.40;99.90;;;;;;5262664;28;20097;-72
2023/01/13 10:10:54;;;;;;;3.13;2.88;;;7.30;99.90;;;;;;5278364;28;20107;-72
2023/01/13 10:13:29;;;;;;;3.50;2.70;;;7.50;99.90;;;;;;5263455;28;20044;-71
2023/01/13 10:16:03;;;;;;;2.20;2.00;;;7.70;99.90;;;;;;5271651;28;20531;-72
2023/01/13 10:19:01;;;;;;;3.90;3.50;;;7.60;99.90;;;;;;5267577;28;20016;-72
2023/01/13 10:22:01;;;;;;;3.35;3.15;;;7.70;99.90;;;;;;5263233;28;20063;-72
2023/01/13 10:24:55;;;;;;;2.28;2.17;;;7.80;99.90;;;;;;5262786;28;20048;-71
2023/01/13 10:27:35;;;;;;;2.75;2.33;;;7.60;99.90;;;;;;5263024;28;20028;-72
2023/01/13 10:30:18;;;;;;;2.30;1.80;;;7.50;99.90;;;;;;5263027;28;20028;-72
2023/01/13 10:32:56;;;;;;;2.00;1.80;;;7.30;99.90;;;;;;5240862;28;20096;-72
2023/01/13 10:36:05;;;;;;;2.60;2.40;;;7.40;99.90;;;;;;5248982;28;20130;-72
2023/01/13 10:38:45;;;;;;;2.88;2.67;;;7.70;99.90;;;;;;5244603;28;20071;-72
2023/01/13 10:41:16;;;;;;;2.05;1.52;;;7.60;99.90;;;;;;5249213;28;20075;-72
2023/01/13 10:44:05;;;;;;;2.25;2.05;;;7.50;99.90;;;;;;5251841;28;20024;-73
2023/01/13 10:46:52;;;;;;;1.88;1.77;;;7.50;99.90;;;;;;5248558;28;20043;-71
2023/01/13 10:49:32;;;;;;;3.22;3.03;;;7.60;99.90;;;;;;5249770;28;20376;-72
2023/01/13 10:52:23;;;;;;;3.30;3.10;;;7.80;99.90;;;;;;5257280;28;20416;-73
2023/01/13 10:54:57;;;;;;;6.43;4.53;;;7.70;99.90;;;;;;5248231;28;20035;-71
2023/01/13 10:57:28;;;;;;;4.10;3.70;;;7.90;99.90;;;;;;5248425;28;20551;-73
2023/01/13 11:00:03;;;;;;;3.10;2.90;;;7.90;99.90;;;;;;5243505;28;20159;-72
2023/01/13 11:02:35;;;;;;;2.58;2.38;;;7.80;99.90;;;;;;5247303;28;20044;-72
2023/01/13 11:05:23;;;;;;;2.17;2.03;;;7.90;99.90;;;;;;5248694;28;20087;-73
2023/01/13 11:07:56;;;;;;;2.30;2.10;;;8.00;99.90;;;;;;5248391;28;20035;-72
2023/01/13 11:10:31;;;;;;;1.98;1.88;;;7.80;99.90;;;;;;5248244;28;20012;-71
2023/01/13 11:13:28;;;;;;;2.10;2.00;;;8.20;99.90;;;;;;5249820;28;20032;-72
2023/01/13 11:16:16;;;;;;;2.08;1.98;;;7.90;99.90;;;;;;5250412;28;20587;-72
2023/01/13 11:19:12;;;;;;;3.08;2.78;;;7.60;99.90;;;;;;5248323;28;20039;-72
2023/01/13 11:22:03;;;;;;;2.35;2.15;;;8.00;99.90;;;;;;5247837;28;20052;-73
2023/01/13 11:24:39;;;;;;;2.10;2.00;;;7.80;99.90;;;;;;5249556;28;20024;-72
2023/01/13 11:27:23;;;;;;;4.13;3.80;;;7.70;99.90;;;;;;5250086;28;20051;-73
2023/01/13 11:30:21;;;;;;;2.38;2.28;;;8.00;99.90;;;;;;5248258;28;20063;-74
2023/01/13 11:32:59;;;;;;;3.10;2.90;;;7.80;99.90;;;;;;5238049;28;20090;-74
2023/01/13 11:35:34;;;;;;;4.63;4.32;;;8.00;99.90;;;;;;5247789;28;20388;-69
2023/01/13 11:38:31;;;;;;;5.20;4.80;;;7.80;99.90;;;;;;5255428;28;20024;-74
2023/01/13 11:41:36;;;;;;;3.45;3.22;;;7.70;99.90;;;;;;5247516;28;20458;-73
2023/01/13 11:44:12;;;;;;;2.65;2.45;;;7.40;99.90;;;;;;5234106;28;20154;-74
2023/01/13 11:46:43;;;;;;;3.40;3.10;;;7.40;99.90;;;;;;5234142;28;20021;-75
2023/01/13 11:49:29;;;;;;;3.78;3.47;;;7.50;99.90;;;;;;5247790;28;20047;-71
2023/01/13 11:52:12;;;;;;;3.03;2.83;;;7.90;99.90;;;;;;5247514;28;20383;-69
2023/01/13 11:54:58;;;;;;;3.78;3.47;;;7.70;99.90;;;;;;5247188;28;20491;-75
2023/01/13 11:57:48;;;;;;;3.55;3.25;;;7.70;99.90;;;;;;5252996;28;20541;-69
2023/01/13 12:00:26;;;;;;;2.65;2.28;;;7.80;99.90;;;;;;5262023;28;20040;-70
2023/01/13 12:03:07;;;;;;;4.18;3.35;;;8.10;99.90;;;;;;5255168;28;20086;-69
2023/01/13 12:05:39;;;;;;;;;;;8.00;99.90;;;;;;5248502;28;20028;-68
2023/01/13 12:08:36;;;;;;;7.55;6.75;;;7.70;99.90;;;;;;5247241;28;19955;-69
2023/01/13 12:12:18;;;;;;;3.47;2.45;;;7.60;99.90;;;;;;5234055;28;20133;-72
2023/01/13 12:14:42;;;;;;;3.60;3.22;;;7.70;99.90;;;;;;5255479;28;20031;-69
2023/01/13 12:17:39;;;;;;;6.35;4.03;;;7.80;99.90;;;;;;5251271;28;20024;-69
2023/01/13 12:20:40;;;;;;;2.70;2.60;;;8.00;99.90;;;;;;5217181;28;20040;-69
2023/01/13 12:23:29;;;;;;;1.90;1.80;;;7.70;99.90;;;;;;5241527;28;20150;-70
2023/01/13 12:26:10;;;;;;;2.05;1.95;;;7.40;99.90;;;;;;5258266;28;20028;-70
2023/01/13 12:29:08;;;;;;;1.83;1.60;;;7.60;99.90;;;;;;5249303;28;20036;-74
2023/01/13 12:31:42;;;;;;;3.33;2.95;;;7.70;99.90;;;;;;5255543;28;20028;-71
2023/01/13 12:34:25;;;;;;;3.22;2.92;;;7.70;99.90;;;;;;5243971;28;20028;-70
2023/01/13 12:37:25;;;;;;;3.22;3.03;;;7.80;99.90;;;;;;5242515;28;20033;-69
2023/01/13 12:40:19;;;;;;;3.63;3.40;;;7.60;99.90;;;;;;5243725;28;20035;-70
2023/01/13 12:46:20;;;;;;;4.88;4.57;;;7.50;99.90;;;;;;5251694;28;20039;-68
2023/01/13 12:48:55;;;;;;;3.85;3.55;;;7.50;99.90;;;;;;5248924;28;20058;-70
2023/01/13 12:51:56;;;;;;;3.67;3.38;;;7.40;99.90;;;;;;5244709;28;20115;-68
2023/01/13 12:54:39;;;;;;;3.22;2.92;;;7.20;99.90;;;;;;5247172;28;20032;-68
2023/01/13 12:57:23;;;;;;;5.70;5.15;;;7.50;99.90;;;;;;5254262;28;20463;-69
2023/01/13 13:00:03;;;;;;;13.48;12.10;;;7.40;99.90;;;;;;5180139;28;20037;-69
2023/01/13 13:02:39;;;;;;;5.28;3.55;;;7.60;99.90;;;;;;5241357;28;20044;-67
2023/01/13 13:05:14;;;;;;;3.70;3.50;;;7.70;99.90;;;;;;5139055;28;20044;-70
2023/01/13 13:08:00;;;;;;;4.03;3.72;;;7.70;99.90;;;;;;5260595;28;20559;-69
2023/01/13 13:10:35;;;;;;;3.22;3.03;;;7.50;99.90;;;;;;5265372;28;20034;-69
2023/01/13 13:13:19;;;;;;;3.55;3.05;;;7.30;99.90;;;;;;5267060;28;20094;-73
2023/01/13 13:15:50;;;;;;;3.22;3.03;;;7.50;99.90;;;;;;5267091;28;20503;-70
2023/01/13 13:18:27;;;;;;;4.05;3.65;;;7.70;99.90;;;;;;5269637;28;20023;-67
2023/01/13 13:21:08;;;;;;;2.67;2.47;;;7.50;99.90;;;;;;5265834;28;20052;-69
2023/01/13 13:23:59;;;;;;;2.92;2.72;;;7.60;99.90;;;;;;5264749;28;20141;-70
2023/01/13 13:26:44;;;;;;;3.33;3.03;;;7.70;99.90;;;;;;5261530;28;20023;-71
2023/01/13 13:29:30;;;;;;;4.93;3.78;;;7.50;99.90;;;;;;5227253;27;20036;-69
2023/01/13 13:32:45;;;;;;;3.97;3.22;;;7.60;99.90;;;;;;5266802;28;20024;-71
2023/01/13 13:35:26;;;;;;;3.22;2.92;;;7.60;99.90;;;;;;5254598;28;20036;-70
2023/01/13 13:47:06;;;;;;;3.63;3.33;;;7.80;99.90;;;;;;5261483;28;20437;-71
2023/01/13 13:49:48;;;;;;;2.08;1.98;;;7.30;99.90;;;;;;5263023;28;20070;-73
2023/01/13 13:52:41;;;;;;;3.38;3.13;;;7.60;99.90;;;;;;5280732;28;20032;-72
2023/01/13 13:55:18;;;;;;;2.78;2.58;;;7.40;99.90;;;;;;5247910;27;20119;-73
2023/01/13 13:57:51;;;;;;;3.50;3.20;;;7.60;99.90;;;;;;5283035;28;20729;-70
2023/01/13 14:00:29;;;;;;;2.10;2.00;;;7.60;99.90;;;;;;5269374;28;20022;-72
2023/01/13 14:03:23;;;;;;;9.15;8.07;;;7.70;99.90;;;;;;5266652;28;20032;-72
2023/01/13 14:06:00;;;;;;;4.75;4.35;;;7.80;99.90;;;;;;5266962;28;20027;-72
2023/01/13 14:08:35;;;;;;;4.60;4.20;;;7.80;99.90;;;;;;5268696;28;20032;-69
2023/01/13 14:11:34;;;;;;;4.65;4.35;;;7.50;99.90;;;;;;5270449;28;20538;-74
2023/01/13 14:14:12;;;;;;;5.43;4.97;;;7.50;99.90;;;;;;5282952;28;20039;-70
2023/01/13 14:16:42;;;;;;;4.00;3.70;;;7.50;99.90;;;;;;5270149;28;20024;-71
2023/01/13 14:19:35;;;;;;;3.75;3.47;;;7.60;99.90;;;;;;5269657;28;20414;-71
2023/01/13 14:22:15;;;;;;;4.22;3.83;;;7.50;99.90;;;;;;5269909;28;20056;-71
2023/01/13 14:24:54;;;;;;;3.55;3.25;;;7.60;99.90;;;;;;5270013;28;20031;-71
2023/01/13 14:27:27;;;;;;;4.32;3.92;;;7.60;99.90;;;;;;5273264;28;20055;-69
2023/01/13 14:30:00;;;;;;;4.38;3.97;;;7.60;99.90;;;;;;5276522;28;20471;-71
2023/01/13 14:32:34;;;;;;;5.18;3.38;;;7.70;99.90;;;;;;5269884;28;20024;-67
2023/01/13 14:35:06;;;;;;;4.13;3.78;;;7.60;99.90;;;;;;5269958;28;20027;-71
2023/01/13 14:37:42;;;;;;;5.28;4.90;;;7.80;99.90;;;;;;5269902;28;20028;-70
2023/01/13 14:40:43;;;;;;;4.70;4.32;;;7.70;99.90;;;;;;5278302;28;20118;-70
2023/01/13 14:43:18;;;;;;;3.58;3.38;;;7.90;99.90;;;;;;5276017;28;20035;-71
2023/01/13 14:46:07;;;;;;;6.57;5.97;;;7.70;99.90;;;;;;5277322;28;20012;-71